Metar Aviation Weather Data KPWM

36°F Temp
30°F Dewpoint
% Humidity
Temperature
7 MPH
11 KM/H
6 KTS
40°
North East

Wind Speed
Overcast
Conditions
Pressure 1028.42 (hPa) - 30.37 (in)
Visibility 10.0 (mi) - 16 (km)

Current Conditions
KPWM
Metar :KPWM 251051Z 04006KT 10SM OVC024 02/M01 A3037 RMK AO2 SLP285 T00221011
Sat 25th January 06:51 am

  Metar Aviation API Data Provided by https://www.checkwx.com/ PHP scripts by weather34.com ©2020